Broadview, Illinois
Current Conditions -  °F | °C
As of 7:53 PM on Sunday 25 Jan 2015 (Local Time) from KMDW Reporting Station
Broken Clouds Broken Clouds  
Wind Chill: 16°   Ceiling: 2600
Heat Index: 28°   Visibility: 10mi
Dew Point: 18°   Wind: 16mph
Humidity: 66%   Direction: 30°NNE
Pressure: 29.96"   Gusts: NA
Location:  41.8566°N, 87.8552°W
Report Text: KMDW 260153Z 03014KT 10SM BKN026 BKN050 M02/M08 A2996 RMK AO2 SLP157 T10221078
Loading
Personal Weather Stations






























Interactive Weather Map New forecast layout! Learn more

10-Day Weather Forecast

Advertisements
Track Severe Weather on mobile